sensor_id;sensor_type;location;lat;lon;timestamp;temperature;humidity
63047;DHT22;62025;39.238;9.126;2023-04-24T00:00:54;17.70;72.70
63047;DHT22;62025;39.238;9.126;2023-04-24T00:03:24;17.60;72.70
63047;DHT22;62025;39.238;9.126;2023-04-24T00:05:53;17.60;72.70
63047;DHT22;62025;39.238;9.126;2023-04-24T00:08:19;17.70;72.80
63047;DHT22;62025;39.238;9.126;2023-04-24T00:10:46;17.60;72.70
63047;DHT22;62025;39.238;9.126;2023-04-24T00:13:11;17.60;72.80
63047;DHT22;62025;39.238;9.126;2023-04-24T00:15:38;17.60;72.90
63047;DHT22;62025;39.238;9.126;2023-04-24T00:18:03;17.60;72.80
63047;DHT22;62025;39.238;9.126;2023-04-24T00:20:29;17.60;72.70
63047;DHT22;62025;39.238;9.126;2023-04-24T00:22:57;17.60;72.70
63047;DHT22;62025;39.238;9.126;2023-04-24T00:25:23;17.60;72.60
63047;DHT22;62025;39.238;9.126;2023-04-24T00:27:49;17.60;72.60
63047;DHT22;62025;39.238;9.126;2023-04-24T00:30:15;17.50;72.80
63047;DHT22;62025;39.238;9.126;2023-04-24T00:32:41;17.60;72.80
63047;DHT22;62025;39.238;9.126;2023-04-24T00:35:07;17.50;72.90
63047;DHT22;62025;39.238;9.126;2023-04-24T00:37:33;17.60;72.70
63047;DHT22;62025;39.238;9.126;2023-04-24T00:39:59;17.50;72.70
63047;DHT22;62025;39.238;9.126;2023-04-24T00:42:25;17.50;72.80
63047;DHT22;62025;39.238;9.126;2023-04-24T00:44:51;17.50;72.70
63047;DHT22;62025;39.238;9.126;2023-04-24T00:47:17;17.50;72.80
63047;DHT22;62025;39.238;9.126;2023-04-24T00:49:44;17.40;72.90
63047;DHT22;62025;39.238;9.126;2023-04-24T00:52:10;17.40;73.00
63047;DHT22;62025;39.238;9.126;2023-04-24T00:54:36;17.30;73.10
63047;DHT22;62025;39.238;9.126;2023-04-24T00:57:05;17.30;73.00
63047;DHT22;62025;39.238;9.126;2023-04-24T00:59:31;17.30;73.20
63047;DHT22;62025;39.238;9.126;2023-04-24T01:01:57;17.30;73.00
63047;DHT22;62025;39.238;9.126;2023-04-24T01:04:24;17.30;73.10
63047;DHT22;62025;39.238;9.126;2023-04-24T01:06:50;17.30;72.90
63047;DHT22;62025;39.238;9.126;2023-04-24T01:09:16;17.40;72.90
63047;DHT22;62025;39.238;9.126;2023-04-24T01:11:42;17.30;73.00
63047;DHT22;62025;39.238;9.126;2023-04-24T01:14:08;17.20;73.30
63047;DHT22;62025;39.238;9.126;2023-04-24T01:16:35;17.30;73.30
63047;DHT22;62025;39.238;9.126;2023-04-24T01:19:01;17.30;73.10
63047;DHT22;62025;39.238;9.126;2023-04-24T01:21:27;17.30;72.90
63047;DHT22;62025;39.238;9.126;2023-04-24T01:23:56;17.30;72.80
63047;DHT22;62025;39.238;9.126;2023-04-24T01:26:22;17.30;72.60
63047;DHT22;62025;39.238;9.126;2023-04-24T01:28:48;17.30;72.50
63047;DHT22;62025;39.238;9.126;2023-04-24T01:31:15;17.20;72.80
63047;DHT22;62025;39.238;9.126;2023-04-24T01:33:41;17.30;72.80
63047;DHT22;62025;39.238;9.126;2023-04-24T01:36:08;17.20;72.70
63047;DHT22;62025;39.238;9.126;2023-04-24T01:38:36;17.20;72.80
63047;DHT22;62025;39.238;9.126;2023-04-24T01:41:03;17.20;72.80
63047;DHT22;62025;39.238;9.126;2023-04-24T01:43:29;17.20;72.80
63047;DHT22;62025;39.238;9.126;2023-04-24T01:45:57;17.20;73.00
63047;DHT22;62025;39.238;9.126;2023-04-24T01:48:23;17.10;73.10
63047;DHT22;62025;39.238;9.126;2023-04-24T01:50:49;17.10;73.20
63047;DHT22;62025;39.238;9.126;2023-04-24T01:53:14;17.00;73.40
63047;DHT22;62025;39.238;9.126;2023-04-24T01:55:41;17.10;73.30
63047;DHT22;62025;39.238;9.126;2023-04-24T01:58:07;17.10;73.50
63047;DHT22;62025;39.238;9.126;2023-04-24T02:00:33;17.10;73.80
63047;DHT22;62025;39.238;9.126;2023-04-24T02:02:59;17.10;73.90
63047;DHT22;62025;39.238;9.126;2023-04-24T02:05:27;17.10;74.20
63047;DHT22;62025;39.238;9.126;2023-04-24T02:07:54;17.00;74.40
63047;DHT22;62025;39.238;9.126;2023-04-24T02:10:20;17.20;74.10
63047;DHT22;62025;39.238;9.126;2023-04-24T02:12:46;17.20;74.00
63047;DHT22;62025;39.238;9.126;2023-04-24T02:15:12;17.20;74.10
63047;DHT22;62025;39.238;9.126;2023-04-24T02:17:38;17.30;73.80
63047;DHT22;62025;39.238;9.126;2023-04-24T02:20:07;17.10;73.60
63047;DHT22;62025;39.238;9.126;2023-04-24T02:22:33;17.10;73.50
63047;DHT22;62025;39.238;9.126;2023-04-24T02:25:01;17.00;73.70
63047;DHT22;62025;39.238;9.126;2023-04-24T02:27:27;17.10;73.60
63047;DHT22;62025;39.238;9.126;2023-04-24T02:29:52;17.10;73.70
63047;DHT22;62025;39.238;9.126;2023-04-24T02:32:18;17.10;73.70
63047;DHT22;62025;39.238;9.126;2023-04-24T02:34:44;17.00;73.90
63047;DHT22;62025;39.238;9.126;2023-04-24T02:37:11;17.00;74.20
63047;DHT22;62025;39.238;9.126;2023-04-24T02:39:37;17.00;74.30
63047;DHT22;62025;39.238;9.126;2023-04-24T02:42:03;16.90;74.40
63047;DHT22;62025;39.238;9.126;2023-04-24T02:44:29;16.80;75.00
63047;DHT22;62025;39.238;9.126;2023-04-24T02:46:55;16.80;75.30
63047;DHT22;62025;39.238;9.126;2023-04-24T02:49:22;16.80;75.10
63047;DHT22;62025;39.238;9.126;2023-04-24T02:51:48;16.80;75.00
63047;DHT22;62025;39.238;9.126;2023-04-24T02:54:14;16.90;75.10
63047;DHT22;62025;39.238;9.126;2023-04-24T02:56:40;16.80;75.20
63047;DHT22;62025;39.238;9.126;2023-04-24T02:59:07;16.80;75.20
63047;DHT22;62025;39.238;9.126;2023-04-24T03:01:33;16.80;75.30
63047;DHT22;62025;39.238;9.126;2023-04-24T03:03:59;16.80;75.30
63047;DHT22;62025;39.238;9.126;2023-04-24T03:06:25;16.80;75.10
63047;DHT22;62025;39.238;9.126;2023-04-24T03:08:52;16.80;74.90
63047;DHT22;62025;39.238;9.126;2023-04-24T03:11:18;16.90;74.90
63047;DHT22;62025;39.238;9.126;2023-04-24T03:13:45;16.90;74.60
63047;DHT22;62025;39.238;9.126;2023-04-24T03:16:10;16.90;74.60
63047;DHT22;62025;39.238;9.126;2023-04-24T03:18:36;16.90;74.50
63047;DHT22;62025;39.238;9.126;2023-04-24T03:21:04;16.90;74.30
63047;DHT22;62025;39.238;9.126;2023-04-24T03:23:30;16.80;74.50
63047;DHT22;62025;39.238;9.126;2023-04-24T03:25:56;16.90;74.50
63047;DHT22;62025;39.238;9.126;2023-04-24T03:28:22;16.90;74.30
63047;DHT22;62025;39.238;9.126;2023-04-24T03:30:54;16.90;74.10
63047;DHT22;62025;39.238;9.126;2023-04-24T03:33:23;16.90;74.30
63047;DHT22;62025;39.238;9.126;2023-04-24T03:35:57;16.90;74.20
63047;DHT22;62025;39.238;9.126;2023-04-24T03:38:23;16.90;74.00
63047;DHT22;62025;39.238;9.126;2023-04-24T03:41:00;16.90;73.90
63047;DHT22;62025;39.238;9.126;2023-04-24T03:43:48;16.80;74.00
63047;DHT22;62025;39.238;9.126;2023-04-24T03:46:14;16.80;74.20
63047;DHT22;62025;39.238;9.126;2023-04-24T03:48:46;16.90;73.90
63047;DHT22;62025;39.238;9.126;2023-04-24T03:51:13;16.80;74.00
63047;DHT22;62025;39.238;9.126;2023-04-24T03:53:43;16.80;74.20
63047;DHT22;62025;39.238;9.126;2023-04-24T03:56:11;16.80;74.30
63047;DHT22;62025;39.238;9.126;2023-04-24T03:58:37;16.80;74.30
63047;DHT22;62025;39.238;9.126;2023-04-24T04:01:03;16.80;74.40
63047;DHT22;62025;39.238;9.126;2023-04-24T04:03:47;16.80;74.50
63047;DHT22;62025;39.238;9.126;2023-04-24T04:06:17;16.80;74.40
63047;DHT22;62025;39.238;9.126;2023-04-24T04:08:43;16.80;74.50
63047;DHT22;62025;39.238;9.126;2023-04-24T04:11:09;16.90;74.50
63047;DHT22;62025;39.238;9.126;2023-04-24T04:13:35;16.80;74.90
63047;DHT22;62025;39.238;9.126;2023-04-24T04:16:01;16.80;75.10
63047;DHT22;62025;39.238;9.126;2023-04-24T04:18:27;16.80;74.90
63047;DHT22;62025;39.238;9.126;2023-04-24T04:20:53;16.80;74.80
63047;DHT22;62025;39.238;9.126;2023-04-24T04:23:19;16.70;75.30
63047;DHT22;62025;39.238;9.126;2023-04-24T04:26:07;16.80;75.30
63047;DHT22;62025;39.238;9.126;2023-04-24T04:29:03;16.90;74.90
63047;DHT22;62025;39.238;9.126;2023-04-24T04:31:30;16.80;75.10
63047;DHT22;62025;39.238;9.126;2023-04-24T04:33:59;16.80;75.00
63047;DHT22;62025;39.238;9.126;2023-04-24T04:36:28;16.90;74.80
63047;DHT22;62025;39.238;9.126;2023-04-24T04:39:02;16.80;74.80
63047;DHT22;62025;39.238;9.126;2023-04-24T04:41:47;16.80;74.80
63047;DHT22;62025;39.238;9.126;2023-04-24T04:44:15;16.90;74.70
63047;DHT22;62025;39.238;9.126;2023-04-24T04:46:42;16.90;74.80
63047;DHT22;62025;39.238;9.126;2023-04-24T04:49:29;16.80;75.10
63047;DHT22;62025;39.238;9.126;2023-04-24T04:51:55;16.80;75.10
63047;DHT22;62025;39.238;9.126;2023-04-24T04:54:24;16.90;75.10
63047;DHT22;62025;39.238;9.126;2023-04-24T04:56:50;16.80;75.10
63047;DHT22;62025;39.238;9.126;2023-04-24T04:59:16;16.80;75.10
63047;DHT22;62025;39.238;9.126;2023-04-24T05:01:43;16.90;75.30
63047;DHT22;62025;39.238;9.126;2023-04-24T05:04:10;16.90;75.30
63047;DHT22;62025;39.238;9.126;2023-04-24T05:06:37;16.90;75.10
63047;DHT22;62025;39.238;9.126;2023-04-24T05:09:04;16.90;75.10
63047;DHT22;62025;39.238;9.126;2023-04-24T05:11:46;16.80;75.50
63047;DHT22;62025;39.238;9.126;2023-04-24T05:14:12;16.90;75.20
63047;DHT22;62025;39.238;9.126;2023-04-24T05:16:39;16.90;75.10
63047;DHT22;62025;39.238;9.126;2023-04-24T05:19:07;17.00;75.00
63047;DHT22;62025;39.238;9.126;2023-04-24T05:21:37;16.90;75.40
63047;DHT22;62025;39.238;9.126;2023-04-24T05:24:05;16.80;75.50
63047;DHT22;62025;39.238;9.126;2023-04-24T05:26:47;16.80;75.60
63047;DHT22;62025;39.238;9.126;2023-04-24T05:29:15;16.90;75.60
63047;DHT22;62025;39.238;9.126;2023-04-24T05:31:41;17.00;75.40
63047;DHT22;62025;39.238;9.126;2023-04-24T05:34:08;17.10;74.90
63047;DHT22;62025;39.238;9.126;2023-04-24T05:36:39;17.10;74.60
63047;DHT22;62025;39.238;9.126;2023-04-24T05:39:05;17.30;74.20
63047;DHT22;62025;39.238;9.126;2023-04-24T05:41:32;17.30;74.00
63047;DHT22;62025;39.238;9.126;2023-04-24T05:43:58;17.40;73.60
63047;DHT22;62025;39.238;9.126;2023-04-24T05:46:24;17.50;73.30
63047;DHT22;62025;39.238;9.126;2023-04-24T05:48:50;17.60;72.90
63047;DHT22;62025;39.238;9.126;2023-04-24T05:51:16;17.80;72.50
63047;DHT22;62025;39.238;9.126;2023-04-24T05:53:42;17.90;72.10
63047;DHT22;62025;39.238;9.126;2023-04-24T05:56:08;18.00;71.80
63047;DHT22;62025;39.238;9.126;2023-04-24T05:58:35;18.10;71.40
63047;DHT22;62025;39.238;9.126;2023-04-24T06:01:03;18.30;70.90
63047;DHT22;62025;39.238;9.126;2023-04-24T06:03:29;18.40;70.50
63047;DHT22;62025;39.238;9.126;2023-04-24T06:05:55;18.50;69.90
63047;DHT22;62025;39.238;9.126;2023-04-24T06:08:22;18.60;69.10
63047;DHT22;62025;39.238;9.126;2023-04-24T06:10:48;18.70;68.70
63047;DHT22;62025;39.238;9.126;2023-04-24T06:13:17;18.80;68.10
63047;DHT22;62025;39.238;9.126;2023-04-24T06:15:56;18.90;67.60
63047;DHT22;62025;39.238;9.126;2023-04-24T06:18:31;19.00;66.90
63047;DHT22;62025;39.238;9.126;2023-04-24T06:20:57;19.10;66.20
63047;DHT22;62025;39.238;9.126;2023-04-24T06:23:23;19.30;66.10
63047;DHT22;62025;39.238;9.126;2023-04-24T06:25:49;19.30;65.80
63047;DHT22;62025;39.238;9.126;2023-04-24T06:28:15;19.40;65.40
63047;DHT22;62025;39.238;9.126;2023-04-24T06:30:41;19.40;64.90
63047;DHT22;62025;39.238;9.126;2023-04-24T06:33:07;19.40;64.80
63047;DHT22;62025;39.238;9.126;2023-04-24T06:35:33;19.40;64.70
63047;DHT22;62025;39.238;9.126;2023-04-24T06:37:59;19.50;64.50
63047;DHT22;62025;39.238;9.126;2023-04-24T06:40:24;19.60;64.30
63047;DHT22;62025;39.238;9.126;2023-04-24T06:42:50;19.60;63.70
63047;DHT22;62025;39.238;9.126;2023-04-24T06:45:16;19.70;63.80
63047;DHT22;62025;39.238;9.126;2023-04-24T06:47:42;19.70;63.60
63047;DHT22;62025;39.238;9.126;2023-04-24T06:50:08;19.70;63.70
63047;DHT22;62025;39.238;9.126;2023-04-24T06:52:34;19.80;63.30
63047;DHT22;62025;39.238;9.126;2023-04-24T06:55:01;19.90;62.90
63047;DHT22;62025;39.238;9.126;2023-04-24T06:57:28;20.00;62.50
63047;DHT22;62025;39.238;9.126;2023-04-24T06:59:54;20.10;62.30
63047;DHT22;62025;39.238;9.126;2023-04-24T07:02:20;20.10;61.90
63047;DHT22;62025;39.238;9.126;2023-04-24T07:04:45;20.30;61.60
63047;DHT22;62025;39.238;9.126;2023-04-24T07:07:13;20.40;61.00
63047;DHT22;62025;39.238;9.126;2023-04-24T07:09:42;20.40;60.70
63047;DHT22;62025;39.238;9.126;2023-04-24T07:12:08;20.60;60.30
63047;DHT22;62025;39.238;9.126;2023-04-24T07:14:36;20.80;60.00
63047;DHT22;62025;39.238;9.126;2023-04-24T07:17:03;20.80;60.20
63047;DHT22;62025;39.238;9.126;2023-04-24T07:19:34;20.90;59.60
63047;DHT22;62025;39.238;9.126;2023-04-24T07:22:01;20.90;59.10
63047;DHT22;62025;39.238;9.126;2023-04-24T07:24:27;21.10;58.70
63047;DHT22;62025;39.238;9.126;2023-04-24T07:26:53;21.20;58.60
63047;DHT22;62025;39.238;9.126;2023-04-24T07:29:19;21.20;58.40
63047;DHT22;62025;39.238;9.126;2023-04-24T07:31:46;21.40;58.20
63047;DHT22;62025;39.238;9.126;2023-04-24T07:34:12;21.50;57.70
63047;DHT22;62025;39.238;9.126;2023-04-24T07:36:38;21.70;57.20
63047;DHT22;62025;39.238;9.126;2023-04-24T07:39:04;21.80;56.60
63047;DHT22;62025;39.238;9.126;2023-04-24T07:41:31;21.90;56.20
63047;DHT22;62025;39.238;9.126;2023-04-24T07:43:57;22.00;56.10
63047;DHT22;62025;39.238;9.126;2023-04-24T07:46:23;22.10;55.60
63047;DHT22;62025;39.238;9.126;2023-04-24T07:48:50;22.10;55.30
63047;DHT22;62025;39.238;9.126;2023-04-24T07:51:16;22.30;55.40
63047;DHT22;62025;39.238;9.126;2023-04-24T07:53:43;22.30;55.10
63047;DHT22;62025;39.238;9.126;2023-04-24T07:56:09;22.40;54.80
63047;DHT22;62025;39.238;9.126;2023-04-24T07:58:35;22.50;54.70
63047;DHT22;62025;39.238;9.126;2023-04-24T08:01:00;22.70;54.50
63047;DHT22;62025;39.238;9.126;2023-04-24T08:03:26;22.80;54.30
63047;DHT22;62025;39.238;9.126;2023-04-24T08:05:52;22.80;54.60
63047;DHT22;62025;39.238;9.126;2023-04-24T08:08:20;22.70;54.30
63047;DHT22;62025;39.238;9.126;2023-04-24T08:10:47;22.80;54.20
63047;DHT22;62025;39.238;9.126;2023-04-24T08:13:12;22.80;54.10
63047;DHT22;62025;39.238;9.126;2023-04-24T08:15:38;22.90;54.20
63047;DHT22;62025;39.238;9.126;2023-04-24T08:18:05;23.10;53.80
63047;DHT22;62025;39.238;9.126;2023-04-24T08:20:31;23.30;53.50
63047;DHT22;62025;39.238;9.126;2023-04-24T08:22:57;23.30;53.50
63047;DHT22;62025;39.238;9.126;2023-04-24T08:25:23;23.40;53.20
63047;DHT22;62025;39.238;9.126;2023-04-24T08:27:50;23.60;53.00
63047;DHT22;62025;39.238;9.126;2023-04-24T08:30:16;23.50;52.50
63047;DHT22;62025;39.238;9.126;2023-04-24T08:32:43;23.70;52.40
63047;DHT22;62025;39.238;9.126;2023-04-24T08:35:09;23.60;52.70
63047;DHT22;62025;39.238;9.126;2023-04-24T08:37:35;23.70;52.20
63047;DHT22;62025;39.238;9.126;2023-04-24T08:40:03;23.90;51.80
63047;DHT22;62025;39.238;9.126;2023-04-24T08:42:37;23.70;52.30
63047;DHT22;62025;39.238;9.126;2023-04-24T08:45:03;23.70;52.80
63047;DHT22;62025;39.238;9.126;2023-04-24T08:47:29;23.80;52.10
63047;DHT22;62025;39.238;9.126;2023-04-24T08:49:56;23.90;51.80
63047;DHT22;62025;39.238;9.126;2023-04-24T08:52:24;24.10;51.70
63047;DHT22;62025;39.238;9.126;2023-04-24T08:54:51;24.10;51.60
63047;DHT22;62025;39.238;9.126;2023-04-24T08:57:17;24.20;51.50
63047;DHT22;62025;39.238;9.126;2023-04-24T08:59:44;24.40;51.60
63047;DHT22;62025;39.238;9.126;2023-04-24T09:02:10;24.30;51.60
63047;DHT22;62025;39.238;9.126;2023-04-24T09:04:37;24.20;51.10
63047;DHT22;62025;39.238;9.126;2023-04-24T09:07:03;24.40;50.10
63047;DHT22;62025;39.238;9.126;2023-04-24T09:09:30;24.60;49.60
63047;DHT22;62025;39.238;9.126;2023-04-24T09:11:57;24.70;48.90
63047;DHT22;62025;39.238;9.126;2023-04-24T09:14:23;24.70;49.10
63047;DHT22;62025;39.238;9.126;2023-04-24T09:16:50;24.70;48.90
63047;DHT22;62025;39.238;9.126;2023-04-24T09:19:16;24.70;48.90
63047;DHT22;62025;39.238;9.126;2023-04-24T09:21:42;24.90;49.00
63047;DHT22;62025;39.238;9.126;2023-04-24T09:24:18;25.00;47.70
63047;DHT22;62025;39.238;9.126;2023-04-24T09:26:48;24.40;48.80
63047;DHT22;62025;39.238;9.126;2023-04-24T09:29:15;24.40;48.90
63047;DHT22;62025;39.238;9.126;2023-04-24T09:31:45;24.50;47.80
63047;DHT22;62025;39.238;9.126;2023-04-24T09:34:11;24.80;46.10
63047;DHT22;62025;39.238;9.126;2023-04-24T09:36:38;24.90;44.00
63047;DHT22;62025;39.238;9.126;2023-04-24T09:39:07;24.90;42.50
63047;DHT22;62025;39.238;9.126;2023-04-24T09:41:43;25.00;40.20
63047;DHT22;62025;39.238;9.126;2023-04-24T09:44:13;25.10;39.20
63047;DHT22;62025;39.238;9.126;2023-04-24T09:46:41;25.10;39.30
63047;DHT22;62025;39.238;9.126;2023-04-24T09:49:08;25.20;37.80
63047;DHT22;62025;39.238;9.126;2023-04-24T09:51:36;25.20;38.90
63047;DHT22;62025;39.238;9.126;2023-04-24T09:54:04;25.10;39.30
63047;DHT22;62025;39.238;9.126;2023-04-24T09:56:33;25.20;39.80
63047;DHT22;62025;39.238;9.126;2023-04-24T09:59:06;25.10;40.40
63047;DHT22;62025;39.238;9.126;2023-04-24T10:01:32;25.20;40.70
63047;DHT22;62025;39.238;9.126;2023-04-24T10:03:59;25.20;41.10
63047;DHT22;62025;39.238;9.126;2023-04-24T10:06:34;25.20;41.20
63047;DHT22;62025;39.238;9.126;2023-04-24T10:09:01;25.00;41.60
63047;DHT22;62025;39.238;9.126;2023-04-24T10:11:27;25.00;42.00
63047;DHT22;62025;39.238;9.126;2023-04-24T10:13:53;24.90;40.60
63047;DHT22;62025;39.238;9.126;2023-04-24T10:16:20;24.90;41.20
63047;DHT22;62025;39.238;9.126;2023-04-24T10:18:48;24.80;41.50
63047;DHT22;62025;39.238;9.126;2023-04-24T10:21:17;24.80;40.80
63047;DHT22;62025;39.238;9.126;2023-04-24T10:23:43;24.60;40.70
63047;DHT22;62025;39.238;9.126;2023-04-24T10:26:12;24.70;41.30
63047;DHT22;62025;39.238;9.126;2023-04-24T10:28:46;24.70;40.90
63047;DHT22;62025;39.238;9.126;2023-04-24T10:31:15;24.70;39.90
63047;DHT22;62025;39.238;9.126;2023-04-24T10:33:41;24.60;40.50
63047;DHT22;62025;39.238;9.126;2023-04-24T10:36:11;24.50;41.50
63047;DHT22;62025;39.238;9.126;2023-04-24T10:38:38;24.50;41.70
63047;DHT22;62025;39.238;9.126;2023-04-24T10:41:07;24.50;42.20
63047;DHT22;62025;39.238;9.126;2023-04-24T10:43:34;24.40;41.90
63047;DHT22;62025;39.238;9.126;2023-04-24T10:46:01;24.40;42.10
63047;DHT22;62025;39.238;9.126;2023-04-24T10:48:28;24.40;41.30
63047;DHT22;62025;39.238;9.126;2023-04-24T10:50:54;24.40;41.30
63047;DHT22;62025;39.238;9.126;2023-04-24T10:53:21;24.30;40.90
63047;DHT22;62025;39.238;9.126;2023-04-24T10:55:49;24.20;40.80
63047;DHT22;62025;39.238;9.126;2023-04-24T10:58:17;24.20;41.10
63047;DHT22;62025;39.238;9.126;2023-04-24T11:00:57;24.20;42.10
63047;DHT22;62025;39.238;9.126;2023-04-24T11:03:28;24.10;41.70
63047;DHT22;62025;39.238;9.126;2023-04-24T11:08:32;24.00;41.10
63047;DHT22;62025;39.238;9.126;2023-04-24T11:11:16;24.00;41.40
63047;DHT22;62025;39.238;9.126;2023-04-24T11:16:25;23.90;41.50
63047;DHT22;62025;39.238;9.126;2023-04-24T11:19:03;23.90;41.50
63047;DHT22;62025;39.238;9.126;2023-04-24T11:24:26;23.90;42.70
63047;DHT22;62025;39.238;9.126;2023-04-24T11:27:07;23.80;42.90
63047;DHT22;62025;39.238;9.126;2023-04-24T11:34:56;23.70;41.70
63047;DHT22;62025;39.238;9.126;2023-04-24T11:37:24;23.70;42.30
63047;DHT22;62025;39.238;9.126;2023-04-24T11:39:53;23.70;42.40
63047;DHT22;62025;39.238;9.126;2023-04-24T11:42:20;23.70;42.90
63047;DHT22;62025;39.238;9.126;2023-04-24T11:44:47;23.60;43.40
63047;DHT22;62025;39.238;9.126;2023-04-24T11:47:15;23.60;43.50
63047;DHT22;62025;39.238;9.126;2023-04-24T11:49:41;23.60;43.50
63047;DHT22;62025;39.238;9.126;2023-04-24T11:52:07;23.50;43.50
63047;DHT22;62025;39.238;9.126;2023-04-24T11:54:33;23.50;43.50
63047;DHT22;62025;39.238;9.126;2023-04-24T11:56:59;23.60;43.70
63047;DHT22;62025;39.238;9.126;2023-04-24T11:59:25;23.50;43.90
63047;DHT22;62025;39.238;9.126;2023-04-24T12:01:51;23.50;43.80
63047;DHT22;62025;39.238;9.126;2023-04-24T12:04:17;23.50;43.70
63047;DHT22;62025;39.238;9.126;2023-04-24T12:07:02;23.50;43.60
63047;DHT22;62025;39.238;9.126;2023-04-24T12:09:46;23.40;43.80
63047;DHT22;62025;39.238;9.126;2023-04-24T12:12:14;23.40;42.90
63047;DHT22;62025;39.238;9.126;2023-04-24T12:17:28;23.40;43.20
63047;DHT22;62025;39.238;9.126;2023-04-24T12:25:16;23.40;43.00
63047;DHT22;62025;39.238;9.126;2023-04-24T12:27:46;23.40;42.50
63047;DHT22;62025;39.238;9.126;2023-04-24T12:30:17;23.40;42.90
63047;DHT22;62025;39.238;9.126;2023-04-24T12:32:46;23.40;43.00
63047;DHT22;62025;39.238;9.126;2023-04-24T12:35:12;23.40;42.80
63047;DHT22;62025;39.238;9.126;2023-04-24T12:37:41;23.40;42.90
63047;DHT22;62025;39.238;9.126;2023-04-24T12:40:09;23.40;42.90
63047;DHT22;62025;39.238;9.126;2023-04-24T12:42:41;23.30;42.60
63047;DHT22;62025;39.238;9.126;2023-04-24T12:45:08;23.30;42.60
63047;DHT22;62025;39.238;9.126;2023-04-24T12:47:35;23.30;42.80
63047;DHT22;62025;39.238;9.126;2023-04-24T12:50:01;23.30;42.80
63047;DHT22;62025;39.238;9.126;2023-04-24T12:52:28;23.30;42.80
63047;DHT22;62025;39.238;9.126;2023-04-24T12:54:56;23.20;42.70
63047;DHT22;62025;39.238;9.126;2023-04-24T12:57:24;23.30;42.70
63047;DHT22;62025;39.238;9.126;2023-04-24T12:59:50;23.30;42.50
63047;DHT22;62025;39.238;9.126;2023-04-24T13:02:17;23.40;42.40
63047;DHT22;62025;39.238;9.126;2023-04-24T13:04:44;23.40;42.60
63047;DHT22;62025;39.238;9.126;2023-04-24T13:07:11;23.30;42.70
63047;DHT22;62025;39.238;9.126;2023-04-24T13:09:38;23.30;42.90
63047;DHT22;62025;39.238;9.126;2023-04-24T13:12:04;23.30;42.90
63047;DHT22;62025;39.238;9.126;2023-04-24T13:14:31;23.30;43.10
63047;DHT22;62025;39.238;9.126;2023-04-24T13:16:57;23.30;43.30
63047;DHT22;62025;39.238;9.126;2023-04-24T13:19:27;23.30;43.50
63047;DHT22;62025;39.238;9.126;2023-04-24T13:21:56;23.40;44.00
63047;DHT22;62025;39.238;9.126;2023-04-24T13:24:23;23.30;43.70
63047;DHT22;62025;39.238;9.126;2023-04-24T13:26:52;23.30;43.50
63047;DHT22;62025;39.238;9.126;2023-04-24T13:29:18;23.40;43.30
63047;DHT22;62025;39.238;9.126;2023-04-24T13:31:45;23.30;42.80
63047;DHT22;62025;39.238;9.126;2023-04-24T13:34:12;23.40;43.20
63047;DHT22;62025;39.238;9.126;2023-04-24T13:36:38;23.40;43.10
63047;DHT22;62025;39.238;9.126;2023-04-24T13:39:05;23.40;43.10
63047;DHT22;62025;39.238;9.126;2023-04-24T13:41:32;23.30;42.90
63047;DHT22;62025;39.238;9.126;2023-04-24T13:43:58;23.30;42.70
63047;DHT22;62025;39.238;9.126;2023-04-24T13:46:24;23.30;42.30
63047;DHT22;62025;39.238;9.126;2023-04-24T13:48:50;23.30;42.50
63047;DHT22;62025;39.238;9.126;2023-04-24T13:51:16;23.30;42.30
63047;DHT22;62025;39.238;9.126;2023-04-24T13:53:42;23.30;42.50
63047;DHT22;62025;39.238;9.126;2023-04-24T13:56:08;23.20;42.60
63047;DHT22;62025;39.238;9.126;2023-04-24T13:58:34;23.20;42.30
63047;DHT22;62025;39.238;9.126;2023-04-24T14:01:02;23.10;42.10
63047;DHT22;62025;39.238;9.126;2023-04-24T14:03:28;23.20;41.60
63047;DHT22;62025;39.238;9.126;2023-04-24T14:05:55;23.20;42.00
63047;DHT22;62025;39.238;9.126;2023-04-24T14:08:21;23.10;41.20
63047;DHT22;62025;39.238;9.126;2023-04-24T14:10:47;23.20;41.40
63047;DHT22;62025;39.238;9.126;2023-04-24T14:13:13;23.20;41.60
63047;DHT22;62025;39.238;9.126;2023-04-24T14:15:39;23.10;41.40
63047;DHT22;62025;39.238;9.126;2023-04-24T14:18:04;23.10;41.50
63047;DHT22;62025;39.238;9.126;2023-04-24T14:20:30;23.10;41.60
63047;DHT22;62025;39.238;9.126;2023-04-24T14:22:56;23.10;41.40
63047;DHT22;62025;39.238;9.126;2023-04-24T14:25:24;23.10;41.60
63047;DHT22;62025;39.238;9.126;2023-04-24T14:27:51;23.10;41.80
63047;DHT22;62025;39.238;9.126;2023-04-24T14:30:17;23.20;41.80
63047;DHT22;62025;39.238;9.126;2023-04-24T14:32:43;23.20;41.80
63047;DHT22;62025;39.238;9.126;2023-04-24T14:35:09;23.10;41.60
63047;DHT22;62025;39.238;9.126;2023-04-24T14:37:35;23.10;41.80
63047;DHT22;62025;39.238;9.126;2023-04-24T14:40:02;23.10;41.70
63047;DHT22;62025;39.238;9.126;2023-04-24T14:42:29;23.10;42.00
63047;DHT22;62025;39.238;9.126;2023-04-24T14:44:55;23.10;42.10
63047;DHT22;62025;39.238;9.126;2023-04-24T14:47:21;23.10;42.10
63047;DHT22;62025;39.238;9.126;2023-04-24T14:49:47;23.00;41.80
63047;DHT22;62025;39.238;9.126;2023-04-24T14:52:14;23.10;42.30
63047;DHT22;62025;39.238;9.126;2023-04-24T14:54:39;23.10;42.00
63047;DHT22;62025;39.238;9.126;2023-04-24T14:57:05;23.10;42.20
63047;DHT22;62025;39.238;9.126;2023-04-24T14:59:31;23.10;42.30
63047;DHT22;62025;39.238;9.126;2023-04-24T15:01:57;23.10;42.20
63047;DHT22;62025;39.238;9.126;2023-04-24T15:04:23;23.00;42.20
63047;DHT22;62025;39.238;9.126;2023-04-24T15:06:51;22.90;41.90
63047;DHT22;62025;39.238;9.126;2023-04-24T15:09:19;22.90;42.10
63047;DHT22;62025;39.238;9.126;2023-04-24T15:11:46;22.90;42.20
63047;DHT22;62025;39.238;9.126;2023-04-24T15:14:12;22.90;41.90
63047;DHT22;62025;39.238;9.126;2023-04-24T15:16:38;22.90;42.00
63047;DHT22;62025;39.238;9.126;2023-04-24T15:19:03;22.90;41.80
63047;DHT22;62025;39.238;9.126;2023-04-24T15:21:29;22.90;42.00
63047;DHT22;62025;39.238;9.126;2023-04-24T15:23:56;23.00;42.20
63047;DHT22;62025;39.238;9.126;2023-04-24T15:26:22;22.90;42.10
63047;DHT22;62025;39.238;9.126;2023-04-24T15:28:49;22.90;42.30
63047;DHT22;62025;39.238;9.126;2023-04-24T15:31:15;22.90;42.30
63047;DHT22;62025;39.238;9.126;2023-04-24T15:33:41;22.90;42.40
63047;DHT22;62025;39.238;9.126;2023-04-24T15:36:07;22.90;42.40
63047;DHT22;62025;39.238;9.126;2023-04-24T15:38:33;22.90;42.70
63047;DHT22;62025;39.238;9.126;2023-04-24T15:40:59;22.90;42.40
63047;DHT22;62025;39.238;9.126;2023-04-24T15:43:25;22.80;42.20
63047;DHT22;62025;39.238;9.126;2023-04-24T15:45:51;22.80;42.40
63047;DHT22;62025;39.238;9.126;2023-04-24T15:48:16;22.70;42.70
63047;DHT22;62025;39.238;9.126;2023-04-24T15:50:43;22.70;42.70
63047;DHT22;62025;39.238;9.126;2023-04-24T15:53:09;22.70;42.60